WZZ120 LBSF-LIRN
Flight info
| Callsign | WZZ120 |
|---|---|
| Flight time | 1h 31m |
| Altitude | 38000 |
| Route | NAPET3T/27 NAPET T214 SIN DCT DOBAR/N0390F280 DCT PAPIZ/N0450F390 DCT OKIMO DCT DOGUS/N0446F380 DCT EKTOL |
| Aircraft | A20N/M-SDE2E3FGHIRWXY/LB1 |
Departure
| Time | 2026-04-30 21:09 |
|---|---|
| Airport | Sofia Airport (LBSF) |
Arrival
| Time | 2026-04-30 22:41 |
|---|---|
| Airport | Naples International Airport (LIRN) |
| Time | Latitude | Longitude | Altitude | Speed | Heading |
|---|---|---|---|---|---|
| 2026-04-30 20:26 | 42.69063 | 23.40373 | 1746 ft | 0 kts | 196° |
| 2026-04-30 21:00 | 42.69004 | 23.40410 | 1744 ft | 8 kts | 108° |
| 2026-04-30 21:00 | 42.68959 | 23.40614 | 1742 ft | 14 kts | 107° |
| 2026-04-30 21:01 | 42.68914 | 23.40905 | 1745 ft | 17 kts | 78° |
| 2026-04-30 21:01 | 42.68950 | 23.41064 | 1743 ft | 18 kts | 72° |
| 2026-04-30 21:01 | 42.69123 | 23.41194 | 1747 ft | 17 kts | 342° |
| 2026-04-30 21:02 | 42.69240 | 23.41158 | 1739 ft | 17 kts | 10° |
| 2026-04-30 21:02 | 42.69359 | 23.41190 | 1747 ft | 18 kts | 12° |
| 2026-04-30 21:02 | 42.69476 | 23.41243 | 1744 ft | 18 kts | 50° |
| 2026-04-30 21:02 | 42.69478 | 23.41407 | 1743 ft | 19 kts | 95° |
| 2026-04-30 21:03 | 42.69469 | 23.41591 | 1748 ft | 20 kts | 93° |
| 2026-04-30 21:03 | 42.69455 | 23.41790 | 1748 ft | 23 kts | 94° |
| 2026-04-30 21:03 | 42.69439 | 23.42055 | 1749 ft | 34 kts | 95° |
| 2026-04-30 21:03 | 42.69415 | 23.42428 | 1750 ft | 44 kts | 94° |
| 2026-04-30 21:04 | 42.69401 | 23.42702 | 1750 ft | 44 kts | 94° |
| 2026-04-30 21:04 | 42.69376 | 23.43113 | 1746 ft | 43 kts | 95° |
| 2026-04-30 21:04 | 42.69335 | 23.43802 | 1810 ft | 23 kts | 95° |
| 2026-04-30 21:05 | 42.69332 | 23.43881 | 1813 ft | 8 kts | 87° |
| 2026-04-30 21:05 | 42.69371 | 23.43948 | 1813 ft | 11 kts | 15° |
| 2026-04-30 21:05 | 42.69402 | 23.43952 | 1808 ft | 0 kts | 4° |
| 2026-04-30 21:08 | 42.69433 | 23.43955 | 1816 ft | 11 kts | 4° |
| 2026-04-30 21:08 | 42.69513 | 23.43911 | 1814 ft | 15 kts | 297° |
| 2026-04-30 21:08 | 42.69524 | 23.43801 | 1809 ft | 0 kts | 275° |
| 2026-04-30 21:08 | 42.69526 | 23.43778 | 1813 ft | 13 kts | 275° |
| 2026-04-30 21:09 | 42.69555 | 23.43353 | 1751 ft | 80 kts | 275° |
| 2026-04-30 21:09 | 42.69612 | 23.42342 | 1746 ft | 135 kts | 274° |
| 2026-04-30 21:09 | 42.69695 | 23.40865 | 1895 ft | 166 kts | 277° |
| 2026-04-30 21:09 | 42.69775 | 23.39250 | 2433 ft | 177 kts | 278° |
| 2026-04-30 21:10 | 42.70018 | 23.37564 | 2911 ft | 186 kts | 294° |
| 2026-04-30 21:10 | 42.70715 | 23.36054 | 3460 ft | 192 kts | 309° |
| 2026-04-30 21:10 | 42.71539 | 23.34550 | 3969 ft | 207 kts | 309° |
| 2026-04-30 21:10 | 42.72437 | 23.32892 | 4479 ft | 228 kts | 309° |
| 2026-04-30 21:11 | 42.73415 | 23.31095 | 4993 ft | 251 kts | 309° |
| 2026-04-30 21:11 | 42.74506 | 23.29115 | 5586 ft | 272 kts | 310° |
| 2026-04-30 21:11 | 42.75595 | 23.26936 | 6390 ft | 280 kts | 303° |
| 2026-04-30 21:11 | 42.76285 | 23.24473 | 7204 ft | 281 kts | 286° |
| 2026-04-30 21:12 | 42.76569 | 23.21807 | 7430 ft | 286 kts | 280° |
| 2026-04-30 21:12 | 42.76700 | 23.19119 | 7728 ft | 286 kts | 274° |
| 2026-04-30 21:12 | 42.76648 | 23.16398 | 8102 ft | 288 kts | 270° |
| 2026-04-30 21:12 | 42.76360 | 23.13695 | 8769 ft | 292 kts | 259° |
| 2026-04-30 21:13 | 42.75579 | 23.11114 | 9717 ft | 299 kts | 237° |
| 2026-04-30 21:13 | 42.74093 | 23.09084 | 10504 ft | 314 kts | 216° |
| 2026-04-30 21:13 | 42.72030 | 23.07738 | 10565 ft | 348 kts | 197° |
| 2026-04-30 21:13 | 42.69515 | 23.07184 | 10460 ft | 382 kts | 183° |
| 2026-04-30 21:14 | 42.66829 | 23.07037 | 11158 ft | 386 kts | 182° |
| 2026-04-30 21:14 | 42.64197 | 23.06849 | 12554 ft | 370 kts | 185° |
| 2026-04-30 21:14 | 42.61676 | 23.06561 | 13953 ft | 360 kts | 187° |
| 2026-04-30 21:14 | 42.59174 | 23.06186 | 14749 ft | 364 kts | 189° |
| 2026-04-30 21:15 | 42.56650 | 23.05744 | 15506 ft | 367 kts | 190° |
| 2026-04-30 21:15 | 42.54103 | 23.05271 | 16249 ft | 371 kts | 190° |
| 2026-04-30 21:15 | 42.51534 | 23.04786 | 16988 ft | 375 kts | 190° |
| 2026-04-30 21:15 | 42.48937 | 23.04297 | 17736 ft | 379 kts | 190° |
| 2026-04-30 21:16 | 42.46314 | 23.03806 | 18447 ft | 383 kts | 190° |
| 2026-04-30 21:16 | 42.43665 | 23.03312 | 19100 ft | 386 kts | 190° |
| 2026-04-30 21:16 | 42.40999 | 23.02818 | 19759 ft | 388 kts | 191° |
| 2026-04-30 21:16 | 42.38312 | 23.02321 | 20402 ft | 391 kts | 191° |
| 2026-04-30 21:17 | 42.35608 | 23.01821 | 21051 ft | 394 kts | 191° |
| 2026-04-30 21:17 | 42.32885 | 23.01308 | 21678 ft | 396 kts | 193° |
| 2026-04-30 21:17 | 42.30281 | 23.00210 | 22286 ft | 391 kts | 210° |
| 2026-04-30 21:17 | 42.28048 | 22.98187 | 22902 ft | 385 kts | 226° |
| 2026-04-30 21:18 | 42.26345 | 22.95429 | 23514 ft | 382 kts | 240° |
| 2026-04-30 21:18 | 42.24913 | 22.92406 | 23909 ft | 381 kts | 240° |
| 2026-04-30 21:18 | 42.23496 | 22.89416 | 24020 ft | 378 kts | 240° |
| 2026-04-30 21:18 | 42.22075 | 22.86422 | 24130 ft | 380 kts | 240° |
| 2026-04-30 21:19 | 42.20648 | 22.83427 | 24229 ft | 379 kts | 240° |
| 2026-04-30 21:19 | 42.19218 | 22.80434 | 24265 ft | 380 kts | 240° |
| 2026-04-30 21:19 | 42.17783 | 22.77438 | 24267 ft | 381 kts | 240° |
| 2026-04-30 21:19 | 42.16335 | 22.74414 | 24263 ft | 386 kts | 240° |
| 2026-04-30 21:20 | 42.14879 | 22.71382 | 24267 ft | 384 kts | 240° |
| 2026-04-30 21:20 | 42.13427 | 22.68360 | 24270 ft | 384 kts | 240° |
| 2026-04-30 21:20 | 42.11974 | 22.65341 | 24250 ft | 383 kts | 240° |
| 2026-04-30 21:20 | 42.10529 | 22.62342 | 24260 ft | 381 kts | 240° |
| 2026-04-30 21:21 | 42.09086 | 22.59347 | 24259 ft | 382 kts | 240° |
| 2026-04-30 21:21 | 42.07642 | 22.56347 | 24260 ft | 382 kts | 240° |
| 2026-04-30 21:21 | 42.04751 | 22.50352 | 24258 ft | 382 kts | 240° |
| 2026-04-30 21:22 | 42.03305 | 22.47358 | 24257 ft | 382 kts | 240° |
| 2026-04-30 21:22 | 41.98935 | 22.38324 | 24256 ft | 385 kts | 241° |
| 2026-04-30 21:23 | 41.97640 | 22.35266 | 24257 ft | 379 kts | 247° |
| 2026-04-30 21:23 | 41.96556 | 22.32050 | 24255 ft | 378 kts | 249° |
| 2026-04-30 21:23 | 41.94401 | 22.25598 | 24256 ft | 378 kts | 249° |
| 2026-04-30 21:24 | 41.93317 | 22.22373 | 24252 ft | 379 kts | 249° |
| 2026-04-30 21:24 | 41.92233 | 22.19152 | 24250 ft | 378 kts | 249° |
| 2026-04-30 21:24 | 41.91148 | 22.15934 | 24252 ft | 378 kts | 249° |
| 2026-04-30 21:24 | 41.90061 | 22.12713 | 24250 ft | 379 kts | 249° |
| 2026-04-30 21:25 | 41.87857 | 22.06195 | 25080 ft | 384 kts | 249° |
| 2026-04-30 21:25 | 41.86753 | 22.02933 | 25637 ft | 385 kts | 249° |
| 2026-04-30 21:25 | 41.85645 | 21.99666 | 26220 ft | 383 kts | 249° |
| 2026-04-30 21:26 | 41.83427 | 21.93136 | 27221 ft | 387 kts | 248° |
| 2026-04-30 21:26 | 41.82308 | 21.89847 | 27695 ft | 389 kts | 248° |
| 2026-04-30 21:27 | 41.80049 | 21.83222 | 28586 ft | 392 kts | 248° |
| 2026-04-30 21:27 | 41.78911 | 21.79891 | 29033 ft | 394 kts | 248° |
| 2026-04-30 21:27 | 41.77760 | 21.76527 | 29248 ft | 401 kts | 249° |
| 2026-04-30 21:28 | 41.75424 | 21.69708 | 30083 ft | 404 kts | 249° |
| 2026-04-30 21:28 | 41.74250 | 21.66287 | 30462 ft | 406 kts | 248° |
| 2026-04-30 21:28 | 41.71895 | 21.59443 | 31182 ft | 406 kts | 249° |
| 2026-04-30 21:29 | 41.70709 | 21.56000 | 31475 ft | 408 kts | 249° |
| 2026-04-30 21:29 | 41.67141 | 21.45669 | 32591 ft | 408 kts | 249° |
| 2026-04-30 21:30 | 41.64757 | 21.38791 | 33309 ft | 407 kts | 249° |
| 2026-04-30 21:31 | 41.61185 | 21.28509 | 34366 ft | 406 kts | 249° |
| 2026-04-30 21:31 | 41.58815 | 21.21713 | 35032 ft | 404 kts | 249° |
| 2026-04-30 21:32 | 41.56438 | 21.14911 | 35534 ft | 404 kts | 249° |
| 2026-04-30 21:32 | 41.55245 | 21.11503 | 35700 ft | 407 kts | 249° |
| 2026-04-30 21:32 | 41.54043 | 21.08073 | 35873 ft | 409 kts | 249° |
| 2026-04-30 21:32 | 41.52838 | 21.04640 | 36116 ft | 408 kts | 249° |
| 2026-04-30 21:33 | 41.51632 | 21.01210 | 36356 ft | 409 kts | 249° |
| 2026-04-30 21:33 | 41.49215 | 20.94344 | 36806 ft | 409 kts | 248° |
| 2026-04-30 21:33 | 41.48005 | 20.90911 | 37021 ft | 408 kts | 249° |
| 2026-04-30 21:34 | 41.46802 | 20.87506 | 37362 ft | 405 kts | 249° |
| 2026-04-30 21:34 | 41.44394 | 20.80697 | 37749 ft | 406 kts | 249° |
| 2026-04-30 21:34 | 41.43185 | 20.77282 | 37879 ft | 408 kts | 249° |
| 2026-04-30 21:35 | 41.41972 | 20.73861 | 38044 ft | 408 kts | 249° |
| 2026-04-30 21:35 | 41.40758 | 20.70445 | 38213 ft | 408 kts | 248° |
| 2026-04-30 21:35 | 41.38326 | 20.63612 | 38244 ft | 408 kts | 248° |
| 2026-04-30 21:36 | 41.35894 | 20.56796 | 38227 ft | 408 kts | 248° |
| 2026-04-30 21:37 | 41.31468 | 20.43036 | 38204 ft | 405 kts | 253° |
| 2026-04-30 21:37 | 41.29524 | 20.35999 | 38197 ft | 404 kts | 253° |
| 2026-04-30 21:38 | 41.27571 | 20.28986 | 38189 ft | 405 kts | 253° |
| 2026-04-30 21:38 | 41.25609 | 20.21976 | 38182 ft | 404 kts | 253° |
| 2026-04-30 21:39 | 41.23647 | 20.14988 | 38159 ft | 403 kts | 253° |
| 2026-04-30 21:39 | 41.21680 | 20.08003 | 38166 ft | 403 kts | 253° |
| 2026-04-30 21:40 | 41.19714 | 20.01036 | 38146 ft | 404 kts | 253° |
| 2026-04-30 21:40 | 41.17737 | 19.94049 | 38135 ft | 404 kts | 253° |
| 2026-04-30 21:41 | 41.15761 | 19.87089 | 38128 ft | 402 kts | 253° |
| 2026-04-30 21:41 | 41.13780 | 19.80128 | 38135 ft | 403 kts | 253° |
| 2026-04-30 21:42 | 41.11792 | 19.73160 | 38117 ft | 404 kts | 253° |
| 2026-04-30 21:42 | 41.09812 | 19.66242 | 38093 ft | 404 kts | 253° |
| 2026-04-30 21:43 | 41.08136 | 19.60401 | 38106 ft | 405 kts | 253° |
| 2026-04-30 21:43 | 41.05805 | 19.52297 | 38113 ft | 405 kts | 253° |
| 2026-04-30 21:44 | 41.03792 | 19.45319 | 38103 ft | 406 kts | 253° |
| 2026-04-30 21:44 | 41.01772 | 19.38334 | 38102 ft | 407 kts | 253° |
| 2026-04-30 21:45 | 40.99742 | 19.31337 | 38106 ft | 407 kts | 253° |
| 2026-04-30 21:45 | 40.97705 | 19.24331 | 38091 ft | 408 kts | 253° |
| 2026-04-30 21:46 | 40.95673 | 19.17368 | 38115 ft | 404 kts | 253° |
| 2026-04-30 21:46 | 40.93644 | 19.10425 | 38123 ft | 406 kts | 253° |
| 2026-04-30 21:47 | 40.91594 | 19.03430 | 38125 ft | 408 kts | 253° |
| 2026-04-30 21:47 | 40.90025 | 18.96297 | 38132 ft | 402 kts | 263° |
| 2026-04-30 21:48 | 40.89520 | 18.88975 | 38133 ft | 399 kts | 272° |
| 2026-04-30 21:48 | 40.89839 | 18.81661 | 38143 ft | 399 kts | 275° |
| 2026-04-30 21:49 | 40.90204 | 18.74342 | 38139 ft | 399 kts | 275° |
| 2026-04-30 21:49 | 40.90559 | 18.67013 | 38142 ft | 400 kts | 275° |
| 2026-04-30 21:50 | 40.90910 | 18.59672 | 38147 ft | 400 kts | 275° |
| 2026-04-30 21:50 | 40.91257 | 18.52326 | 38155 ft | 400 kts | 275° |
| 2026-04-30 21:51 | 40.91542 | 18.46222 | 38157 ft | 401 kts | 275° |
| 2026-04-30 21:51 | 40.91880 | 18.38866 | 38170 ft | 401 kts | 275° |
| 2026-04-30 21:52 | 40.92213 | 18.31527 | 38162 ft | 397 kts | 275° |
| 2026-04-30 21:52 | 40.92540 | 18.24245 | 38160 ft | 397 kts | 275° |
| 2026-04-30 21:53 | 40.92862 | 18.16950 | 38159 ft | 397 kts | 275° |
| 2026-04-30 21:53 | 40.93179 | 18.09652 | 38169 ft | 397 kts | 275° |
| 2026-04-30 21:54 | 40.93495 | 18.02359 | 38172 ft | 397 kts | 275° |
| 2026-04-30 21:54 | 40.93832 | 17.95066 | 38170 ft | 397 kts | 275° |
| 2026-04-30 21:55 | 40.94172 | 17.87771 | 38176 ft | 397 kts | 275° |
| 2026-04-30 21:55 | 40.94503 | 17.80476 | 38176 ft | 397 kts | 275° |
| 2026-04-30 21:56 | 40.94828 | 17.73182 | 38170 ft | 397 kts | 275° |
| 2026-04-30 21:56 | 40.95147 | 17.65889 | 38181 ft | 397 kts | 275° |
| 2026-04-30 21:57 | 40.95463 | 17.58595 | 38182 ft | 397 kts | 275° |
| 2026-04-30 21:57 | 40.95774 | 17.51298 | 38175 ft | 397 kts | 275° |
| 2026-04-30 21:58 | 40.96080 | 17.43997 | 38185 ft | 397 kts | 275° |
| 2026-04-30 21:58 | 40.96381 | 17.36695 | 38170 ft | 398 kts | 275° |
| 2026-04-30 21:59 | 40.96679 | 17.29388 | 38170 ft | 398 kts | 275° |
| 2026-04-30 22:00 | 40.97114 | 17.18471 | 38182 ft | 398 kts | 275° |
| 2026-04-30 22:00 | 40.97542 | 17.07487 | 38192 ft | 399 kts | 275° |
| 2026-04-30 22:01 | 40.97821 | 17.00156 | 38188 ft | 399 kts | 275° |
| 2026-04-30 22:01 | 40.98097 | 16.92820 | 38189 ft | 399 kts | 275° |
| 2026-04-30 22:02 | 40.98368 | 16.85474 | 38196 ft | 400 kts | 275° |
| 2026-04-30 22:02 | 40.98634 | 16.78127 | 38193 ft | 400 kts | 275° |
| 2026-04-30 22:03 | 40.98895 | 16.70779 | 38192 ft | 400 kts | 275° |
| 2026-04-30 22:03 | 40.99151 | 16.63440 | 38192 ft | 399 kts | 275° |
| 2026-04-30 22:04 | 40.99404 | 16.56100 | 38190 ft | 399 kts | 275° |
| 2026-04-30 22:05 | 40.99769 | 16.45183 | 38187 ft | 395 kts | 275° |
| 2026-04-30 22:05 | 41.00008 | 16.37913 | 38185 ft | 395 kts | 275° |
| 2026-04-30 22:06 | 41.00241 | 16.30644 | 38190 ft | 396 kts | 275° |
| 2026-04-30 22:06 | 41.00583 | 16.19731 | 38202 ft | 396 kts | 275° |
| 2026-04-30 22:07 | 41.00805 | 16.12454 | 38212 ft | 396 kts | 275° |
| 2026-04-30 22:07 | 41.01023 | 16.05168 | 38225 ft | 396 kts | 275° |
| 2026-04-30 22:08 | 41.01236 | 15.97885 | 38216 ft | 395 kts | 275° |
| 2026-04-30 22:08 | 41.01444 | 15.90610 | 38229 ft | 395 kts | 275° |
| 2026-04-30 22:09 | 41.01648 | 15.83337 | 38230 ft | 396 kts | 275° |
| 2026-04-30 22:09 | 41.01848 | 15.76056 | 38238 ft | 396 kts | 275° |
| 2026-04-30 22:10 | 41.02263 | 15.68815 | 38235 ft | 393 kts | 282° |
| 2026-04-30 22:10 | 41.03423 | 15.61810 | 38237 ft | 392 kts | 284° |
| 2026-04-30 22:11 | 41.05187 | 15.51229 | 38237 ft | 392 kts | 284° |
| 2026-04-30 22:12 | 41.06354 | 15.44171 | 38237 ft | 392 kts | 284° |
| 2026-04-30 22:12 | 41.07518 | 15.37105 | 38238 ft | 392 kts | 284° |
| 2026-04-30 22:13 | 41.08677 | 15.30040 | 38235 ft | 392 kts | 284° |
| 2026-04-30 22:13 | 41.09825 | 15.22985 | 38231 ft | 391 kts | 283° |
| 2026-04-30 22:13 | 41.10079 | 15.19396 | 38230 ft | 394 kts | 272° |
| 2026-04-30 22:14 | 41.09778 | 15.15759 | 38230 ft | 401 kts | 262° |
| 2026-04-30 22:14 | 41.08914 | 15.12215 | 38231 ft | 409 kts | 251° |
| 2026-04-30 22:14 | 41.07637 | 15.08823 | 38228 ft | 412 kts | 249° |
| 2026-04-30 22:15 | 41.05062 | 15.02058 | 38220 ft | 410 kts | 250° |
| 2026-04-30 22:15 | 41.03783 | 14.98691 | 37981 ft | 408 kts | 250° |
| 2026-04-30 22:15 | 41.02508 | 14.95333 | 37486 ft | 409 kts | 250° |
| 2026-04-30 22:15 | 41.01227 | 14.91964 | 36708 ft | 410 kts | 250° |
| 2026-04-30 22:16 | 40.99953 | 14.88615 | 35730 ft | 416 kts | 250° |
| 2026-04-30 22:16 | 40.98626 | 14.85130 | 34836 ft | 418 kts | 250° |
| 2026-04-30 22:17 | 40.94875 | 14.75377 | 34327 ft | 377 kts | 250° |
| 2026-04-30 22:17 | 40.93710 | 14.72348 | 34208 ft | 362 kts | 250° |
| 2026-04-30 22:17 | 40.91485 | 14.66550 | 33369 ft | 346 kts | 251° |
| 2026-04-30 22:18 | 40.90320 | 14.63570 | 30313 ft | 392 kts | 250° |
| 2026-04-30 22:18 | 40.87641 | 14.57242 | 24475 ft | 375 kts | 245° |
| 2026-04-30 22:19 | 40.84964 | 14.51832 | 19904 ft | 331 kts | 243° |
| 2026-04-30 22:19 | 40.83749 | 14.49348 | 17919 ft | 314 kts | 244° |
| 2026-04-30 22:19 | 40.81719 | 14.44565 | 14128 ft | 285 kts | 249° |
| 2026-04-30 22:20 | 40.80948 | 14.42215 | 12281 ft | 274 kts | 252° |
| 2026-04-30 22:20 | 40.79767 | 14.37322 | 10532 ft | 286 kts | 254° |
| 2026-04-30 22:20 | 40.79288 | 14.34851 | 10408 ft | 270 kts | 269° |
| 2026-04-30 22:21 | 40.79489 | 14.32483 | 10312 ft | 253 kts | 290° |
| 2026-04-30 22:21 | 40.80322 | 14.30511 | 10101 ft | 244 kts | 312° |
| 2026-04-30 22:21 | 40.81595 | 14.29087 | 9912 ft | 236 kts | 322° |
| 2026-04-30 22:21 | 40.82898 | 14.27751 | 9847 ft | 240 kts | 321° |
| 2026-04-30 22:22 | 40.84208 | 14.26388 | 9775 ft | 239 kts | 321° |
| 2026-04-30 22:22 | 40.85508 | 14.25030 | 9703 ft | 238 kts | 321° |
| 2026-04-30 22:22 | 40.86806 | 14.23673 | 9626 ft | 238 kts | 321° |
| 2026-04-30 22:22 | 40.88104 | 14.22317 | 9565 ft | 238 kts | 321° |
| 2026-04-30 22:23 | 40.89401 | 14.20962 | 9503 ft | 236 kts | 322° |
| 2026-04-30 22:23 | 40.90685 | 14.19616 | 9428 ft | 236 kts | 322° |
| 2026-04-30 22:23 | 40.91953 | 14.18236 | 9349 ft | 236 kts | 314° |
| 2026-04-30 22:23 | 40.92770 | 14.16364 | 9286 ft | 240 kts | 286° |
| 2026-04-30 22:24 | 40.92795 | 14.14155 | 9209 ft | 246 kts | 258° |
| 2026-04-30 22:24 | 40.92014 | 14.12149 | 9156 ft | 253 kts | 238° |
| 2026-04-30 22:24 | 40.90979 | 14.10230 | 9079 ft | 253 kts | 238° |
| 2026-04-30 22:24 | 40.89959 | 14.08348 | 8994 ft | 250 kts | 238° |
| 2026-04-30 22:25 | 40.88955 | 14.06479 | 8922 ft | 249 kts | 238° |
| 2026-04-30 22:25 | 40.87955 | 14.04604 | 8840 ft | 249 kts | 239° |
| 2026-04-30 22:25 | 40.86975 | 14.02758 | 8774 ft | 249 kts | 239° |
| 2026-04-30 22:25 | 40.85981 | 14.00886 | 8699 ft | 249 kts | 239° |
| 2026-04-30 22:26 | 40.83994 | 13.97147 | 8557 ft | 248 kts | 239° |
| 2026-04-30 22:26 | 40.82998 | 13.95280 | 8485 ft | 249 kts | 239° |
| 2026-04-30 22:26 | 40.81999 | 13.93418 | 8423 ft | 248 kts | 238° |
| 2026-04-30 22:27 | 40.81000 | 13.91557 | 8304 ft | 248 kts | 238° |
| 2026-04-30 22:27 | 40.80004 | 13.89707 | 8166 ft | 247 kts | 239° |
| 2026-04-30 22:27 | 40.78019 | 13.86013 | 7889 ft | 246 kts | 239° |
| 2026-04-30 22:28 | 40.76044 | 13.82332 | 7614 ft | 246 kts | 239° |
| 2026-04-30 22:28 | 40.75059 | 13.80499 | 7479 ft | 245 kts | 239° |
| 2026-04-30 22:29 | 40.71941 | 13.74666 | 7037 ft | 272 kts | 238° |
| 2026-04-30 22:29 | 40.70656 | 13.72860 | 6922 ft | 273 kts | 218° |
| 2026-04-30 22:30 | 40.64280 | 13.75022 | 6248 ft | 251 kts | 137° |
| 2026-04-30 22:31 | 40.62874 | 13.80780 | 5912 ft | 224 kts | 56° |
| 2026-04-30 22:32 | 40.65632 | 13.85745 | 5560 ft | 242 kts | 50° |
| 2026-04-30 22:32 | 40.67683 | 13.89467 | 5269 ft | 249 kts | 52° |
| 2026-04-30 22:33 | 40.70668 | 13.95056 | 4831 ft | 244 kts | 52° |
| 2026-04-30 22:33 | 40.72615 | 13.98697 | 4562 ft | 243 kts | 53° |
| 2026-04-30 22:34 | 40.75434 | 14.03954 | 4026 ft | 222 kts | 53° |
| 2026-04-30 22:35 | 40.77099 | 14.07087 | 3884 ft | 196 kts | 54° |
| 2026-04-30 22:36 | 40.79842 | 14.12285 | 3574 ft | 146 kts | 54° |
| 2026-04-30 22:36 | 40.80399 | 14.13323 | 3488 ft | 133 kts | 53° |
| 2026-04-30 22:37 | 40.81943 | 14.16183 | 2877 ft | 121 kts | 53° |
| 2026-04-30 22:37 | 40.82410 | 14.17069 | 2710 ft | 113 kts | 53° |
| 2026-04-30 22:37 | 40.83259 | 14.18676 | 2366 ft | 109 kts | 54° |
| 2026-04-30 22:38 | 40.84100 | 14.20276 | 2027 ft | 107 kts | 54° |
| 2026-04-30 22:38 | 40.84950 | 14.21885 | 1696 ft | 111 kts | 55° |
| 2026-04-30 22:39 | 40.85412 | 14.22763 | 1502 ft | 118 kts | 55° |
| 2026-04-30 22:39 | 40.86849 | 14.25399 | 856 ft | 115 kts | 57° |
| 2026-04-30 22:40 | 40.88164 | 14.28157 | 326 ft | 116 kts | 55° |
| 2026-04-30 22:41 | 40.88936 | 14.29775 | 243 ft | 32 kts | 57° |
| 2026-04-30 22:41 | 40.89016 | 14.30155 | 228 ft | 20 kts | 145° |
| 2026-04-30 22:42 | 40.88632 | 14.29621 | 251 ft | 35 kts | 233° |
| 2026-04-30 22:43 | 40.88349 | 14.29130 | 271 ft | 32 kts | 232° |
| 2026-04-30 22:43 | 40.88085 | 14.28673 | 292 ft | 30 kts | 232° |
| 2026-04-30 22:44 | 40.88057 | 14.28219 | 302 ft | 24 kts | 249° |
| 2026-04-30 22:45 | 40.87861 | 14.28138 | 308 ft | 2 kts | 141° |
| 2026-04-30 22:45 | 40.87860 | 14.28139 | 308 ft | 0 kts | 139° |